Time;durP1;ratioP1;P1;durP2;ratioP2;P2;SDS_P1;SDS_P2;PMS_P1;PMS_P2;Temp;Humidity;BMP_temperature;BMP_pressure;BME280_temperature;BME280_humidity;BME280_pressure;Samples;Min_cycle;Max_cycle;Signal;HPM_P1;HPM_P2
2022/05/09 00:01:20;;;;;;;11.57;4.90;;;5.90;99.90;;;;;;5092601;28;20044;-74
2022/05/09 00:03:45;;;;;;;18.45;5.45;;;5.90;99.90;;;;;;5074912;28;20048;-74
2022/05/09 00:06:12;;;;;;;21.45;6.22;;;5.90;99.90;;;;;;5074657;28;20044;-74
2022/05/09 00:08:39;;;;;;;16.35;5.05;;;5.80;99.90;;;;;;5074797;28;20051;-74
2022/05/09 00:11:06;;;;;;;16.83;4.95;;;5.80;99.90;;;;;;5092407;28;20039;-74
2022/05/09 00:13:31;;;;;;;14.60;5.63;;;5.80;99.90;;;;;;5074956;28;20044;-74
2022/05/09 00:15:57;;;;;;;16.55;5.25;;;5.70;99.90;;;;;;5092346;28;20112;-74
2022/05/09 00:18:23;;;;;;;10.38;4.32;;;5.70;99.90;;;;;;5092263;28;20431;-74
2022/05/09 00:20:49;;;;;;;14.23;4.50;;;5.60;99.90;;;;;;5091826;28;20056;-74
2022/05/09 00:23:15;;;;;;;16.05;4.28;;;5.60;99.90;;;;;;5091777;28;20123;-75
2022/05/09 00:25:41;;;;;;;13.07;4.05;;;5.60;99.90;;;;;;5091831;28;20360;-75
2022/05/09 00:28:07;;;;;;;11.07;4.63;;;5.60;99.90;;;;;;5074874;28;20459;-75
2022/05/09 00:30:32;;;;;;;16.00;6.45;;;5.50;99.90;;;;;;5092183;28;20449;-73
2022/05/09 00:32:58;;;;;;;17.75;5.55;;;5.50;99.90;;;;;;5092265;28;20040;-75
2022/05/09 00:35:24;;;;;;;16.88;5.65;;;5.50;99.90;;;;;;5074444;28;20369;-74
2022/05/09 00:37:50;;;;;;;15.30;4.82;;;5.50;99.90;;;;;;5057672;28;20047;-75
2022/05/09 00:40:17;;;;;;;16.55;5.03;;;5.50;99.90;;;;;;5092164;28;20036;-74
2022/05/09 00:42:51;;;;;;;14.43;5.30;;;5.50;99.90;;;;;;5074711;28;20047;-74
2022/05/09 00:45:20;;;;;;;15.35;5.35;;;5.40;99.90;;;;;;5074308;28;20051;-74
2022/05/09 00:47:47;;;;;;;19.48;6.47;;;5.40;99.90;;;;;;5092035;28;20044;-74
2022/05/09 00:50:19;;;;;;;13.93;5.07;;;5.30;99.90;;;;;;5091854;28;20036;-75
2022/05/09 00:52:58;;;;;;;12.40;5.40;;;5.30;99.90;;;;;;5091741;28;20048;-74
2022/05/09 00:55:30;;;;;;;14.02;5.40;;;5.30;99.90;;;;;;5091906;28;20075;-74
2022/05/09 00:58:00;;;;;;;8.75;4.22;;;5.20;99.90;;;;;;5091843;28;20040;-74
2022/05/09 01:00:26;;;;;;;9.73;4.00;;;5.20;99.90;;;;;;5091712;28;20059;-75
2022/05/09 01:03:00;;;;;;;10.00;4.20;;;5.20;99.90;;;;;;5091740;28;20040;-74
2022/05/09 01:05:28;;;;;;;19.15;4.78;;;5.20;99.90;;;;;;5091661;28;20448;-74
2022/05/09 01:07:55;;;;;;;8.30;3.47;;;5.10;99.90;;;;;;5091733;28;20465;-74
2022/05/09 01:10:26;;;;;;;6.03;3.65;;;5.00;99.90;;;;;;5091807;28;20040;-75
2022/05/09 01:12:52;;;;;;;;;;;4.90;99.90;;;;;;5092282;28;20054;-74
2022/05/09 01:15:18;;;;;;;13.35;4.65;;;4.80;99.90;;;;;;5074043;28;20014;-75
2022/05/09 01:17:47;;;;;;;13.40;4.10;;;4.80;99.90;;;;;;5073940;28;20094;-74
2022/05/09 01:20:14;;;;;;;16.65;5.50;;;4.80;99.90;;;;;;5091560;28;20433;-73
2022/05/09 01:22:41;;;;;;;13.23;5.82;;;4.80;99.90;;;;;;5091811;28;20055;-74
2022/05/09 01:25:14;;;;;;;11.13;6.30;;;4.80;99.90;;;;;;5073975;28;20093;-74
2022/05/09 01:27:42;;;;;;;10.23;5.80;;;4.80;99.90;;;;;;5091627;28;20040;-75
2022/05/09 01:30:27;;;;;;;12.88;5.03;;;4.80;99.90;;;;;;5091317;28;20082;-74
2022/05/09 01:33:22;;;;;;;23.08;6.22;;;4.90;99.90;;;;;;5091772;28;20044;-74
2022/05/09 01:35:57;;;;;;;15.73;5.90;;;4.90;99.90;;;;;;5091695;28;20508;-74
2022/05/09 01:38:34;;;;;;;10.75;5.85;;;4.90;99.90;;;;;;5095068;28;20080;-73
2022/05/09 01:41:00;;;;;;;17.15;8.27;;;4.90;99.90;;;;;;5077650;28;20085;-75
2022/05/09 01:43:40;;;;;;;15.35;5.95;;;5.00;99.90;;;;;;5095473;28;20146;-74
2022/05/09 01:46:11;;;;;;;15.70;5.88;;;5.00;99.90;;;;;;5094838;28;20062;-76
2022/05/09 01:51:22;;;;;;;19.42;6.20;;;5.00;99.90;;;;;;5095034;28;20047;-74
2022/05/09 01:53:52;;;;;;;18.52;6.63;;;5.00;99.90;;;;;;5095076;28;20118;-74
2022/05/09 01:56:23;;;;;;;20.58;6.35;;;5.00;99.90;;;;;;5094824;28;20055;-73
2022/05/09 01:58:49;;;;;;;16.05;6.70;;;5.00;99.90;;;;;;5094702;28;20503;-73
2022/05/09 02:01:16;;;;;;;18.67;6.32;;;4.90;99.90;;;;;;5060420;28;20040;-75
2022/05/09 02:03:46;;;;;;;21.35;6.72;;;4.90;99.90;;;;;;5076966;28;20044;-74
2022/05/09 02:06:12;;;;;;;15.25;5.75;;;4.90;99.90;;;;;;5076708;28;20040;-74
2022/05/09 02:08:39;;;;;;;14.27;5.30;;;4.80;99.90;;;;;;5076969;28;20079;-73
2022/05/09 02:11:05;;;;;;;16.25;6.30;;;4.80;99.90;;;;;;5094434;28;20051;-74
2022/05/09 02:13:31;;;;;;;12.82;5.25;;;4.80;99.90;;;;;;5094445;28;20040;-74
2022/05/09 02:15:58;;;;;;;20.90;6.47;;;4.80;99.90;;;;;;5076695;28;20044;-74
2022/05/09 02:18:23;;;;;;;21.15;7.03;;;4.70;99.90;;;;;;5094621;28;20040;-75
2022/05/09 02:20:51;;;;;;;22.80;6.90;;;4.80;99.90;;;;;;5076434;28;20067;-74
2022/05/09 02:23:17;;;;;;;15.20;5.85;;;4.70;99.90;;;;;;5094468;28;20044;-74
2022/05/09 02:25:45;;;;;;;18.75;5.30;;;4.70;99.90;;;;;;5076524;28;20457;-73
2022/05/09 02:28:12;;;;;;;16.60;5.43;;;4.70;99.90;;;;;;5094213;28;20054;-75
2022/05/09 02:30:39;;;;;;;12.93;5.38;;;4.70;99.90;;;;;;5093951;28;20048;-75
2022/05/09 02:33:07;;;;;;;16.15;5.75;;;4.70;99.90;;;;;;5076472;28;20040;-74
2022/05/09 02:35:33;;;;;;;19.60;7.22;;;4.70;99.90;;;;;;5094024;28;20141;-74
2022/05/09 02:37:59;;;;;;;16.73;5.90;;;4.70;99.90;;;;;;5094061;28;20063;-73
2022/05/09 02:40:26;;;;;;;16.92;6.85;;;4.70;99.90;;;;;;5094312;28;20059;-76
2022/05/09 02:42:58;;;;;;;16.20;6.63;;;4.60;99.90;;;;;;5076288;28;20048;-74
2022/05/09 02:45:25;;;;;;;17.65;6.75;;;4.60;99.90;;;;;;5075890;28;20136;-73
2022/05/09 02:47:51;;;;;;;18.98;7.55;;;4.60;99.90;;;;;;5076346;28;20044;-74
2022/05/09 02:50:19;;;;;;;22.63;7.68;;;4.70;99.90;;;;;;5076371;28;20131;-73
2022/05/09 02:52:46;;;;;;;8.98;5.20;;;4.70;99.90;;;;;;5093571;28;20466;-75
2022/05/09 02:55:12;;;;;;;13.02;5.10;;;4.70;99.90;;;;;;5076114;28;20044;-74
2022/05/09 02:57:38;;;;;;;13.32;5.10;;;4.60;99.90;;;;;;5075831;28;20040;-75
2022/05/09 03:00:08;;;;;;;10.73;5.72;;;4.60;99.90;;;;;;5093751;28;20126;-74
2022/05/09 03:02:34;;;;;;;15.40;6.10;;;4.50;99.90;;;;;;5093573;28;20043;-73
2022/05/09 03:05:00;;;;;;;15.35;6.20;;;4.50;99.90;;;;;;5093511;28;20032;-74
2022/05/09 03:07:26;;;;;;;14.73;7.10;;;4.50;99.90;;;;;;5093335;28;20043;-75
2022/05/09 03:09:52;;;;;;;12.85;6.28;;;4.50;99.90;;;;;;5075832;28;20427;-75
2022/05/09 03:12:19;;;;;;;16.15;6.30;;;4.50;99.90;;;;;;5093076;28;20036;-74
2022/05/09 03:14:48;;;;;;;11.10;5.28;;;4.50;99.90;;;;;;5075902;28;20063;-74
2022/05/09 03:17:15;;;;;;;11.38;5.70;;;4.50;99.90;;;;;;5075730;28;20054;-74
2022/05/09 03:19:41;;;;;;;12.98;5.32;;;4.50;99.90;;;;;;5093029;28;20055;-74
2022/05/09 03:22:07;;;;;;;8.25;3.97;;;4.50;99.90;;;;;;5075508;28;20047;-74
2022/05/09 03:24:33;;;;;;;5.50;3.45;;;4.50;99.90;;;;;;5093136;28;20044;-75
2022/05/09 03:27:02;;;;;;;5.10;3.10;;;4.40;99.90;;;;;;5092807;28;20135;-74
2022/05/09 03:29:28;;;;;;;7.55;4.28;;;4.30;99.90;;;;;;5093152;28;20108;-73
2022/05/09 03:31:54;;;;;;;10.57;4.30;;;4.30;99.90;;;;;;5075464;28;20118;-75
2022/05/09 03:34:20;;;;;;;8.70;4.60;;;4.30;99.90;;;;;;5092995;28;20521;-75
2022/05/09 03:36:46;;;;;;;11.05;4.47;;;4.20;99.90;;;;;;5058688;28;20040;-75
2022/05/09 03:39:12;;;;;;;8.88;4.80;;;4.20;99.90;;;;;;5075383;28;20121;-75
2022/05/09 03:41:38;;;;;;;9.40;4.18;;;4.20;99.90;;;;;;5092579;28;20329;-75
2022/05/09 03:44:05;;;;;;;7.00;4.07;;;4.10;99.90;;;;;;5092903;28;20040;-74
2022/05/09 03:46:31;;;;;;;9.90;5.00;;;4.10;99.90;;;;;;5074865;28;20039;-73
2022/05/09 03:48:57;;;;;;;6.60;3.67;;;4.10;99.90;;;;;;5075159;28;20062;-75
2022/05/09 03:51:22;;;;;;;8.55;3.92;;;4.10;99.90;;;;;;5092593;28;20452;-73
2022/05/09 03:53:48;;;;;;;7.13;4.07;;;4.10;99.90;;;;;;5075091;28;20357;-75
2022/05/09 03:56:14;;;;;;;8.68;4.20;;;4.10;99.90;;;;;;5074574;28;20043;-76
2022/05/09 03:58:40;;;;;;;7.70;4.47;;;4.10;99.90;;;;;;5091798;28;20052;-74
2022/05/09 04:01:08;;;;;;;5.15;3.33;;;4.10;99.90;;;;;;5092607;28;20050;-74
2022/05/09 04:03:34;;;;;;;5.00;3.58;;;4.00;99.90;;;;;;5092298;28;20453;-75
2022/05/09 04:06:00;;;;;;;6.68;3.80;;;4.00;99.90;;;;;;5092268;28;20059;-74
2022/05/09 04:08:26;;;;;;;6.57;3.63;;;4.00;99.90;;;;;;5074828;28;20052;-75
2022/05/09 04:10:54;;;;;;;7.63;4.47;;;3.90;99.90;;;;;;5092293;28;20047;-74
2022/05/09 04:13:20;;;;;;;7.90;3.55;;;3.90;99.90;;;;;;5092494;28;20429;-74
2022/05/09 04:18:42;;;;;;;9.45;4.97;;;3.90;99.90;;;;;;5092182;28;20074;-75
2022/05/09 04:21:11;;;;;;;5.30;3.25;;;3.90;99.90;;;;;;5074064;28;20048;-73
2022/05/09 04:23:37;;;;;;;7.07;4.20;;;3.80;99.90;;;;;;5092290;28;20048;-74
2022/05/09 04:26:05;;;;;;;7.10;3.55;;;3.90;99.90;;;;;;5074612;28;20059;-76
2022/05/09 04:28:31;;;;;;;5.97;4.32;;;3.80;99.90;;;;;;5074685;28;20044;-74
2022/05/09 04:30:58;;;;;;;5.68;4.30;;;3.90;99.90;;;;;;5074614;28;20035;-76
2022/05/09 04:33:24;;;;;;;6.20;4.10;;;3.80;99.90;;;;;;5074509;28;20055;-75
2022/05/09 04:35:50;;;;;;;9.77;4.30;;;3.80;99.90;;;;;;5091925;28;20048;-77
2022/05/09 04:38:23;;;;;;;8.98;4.18;;;3.90;99.90;;;;;;5091917;28;20035;-75
2022/05/09 04:40:51;;;;;;;6.25;4.38;;;3.90;99.90;;;;;;5074374;28;20067;-74
2022/05/09 04:43:23;;;;;;;9.13;4.20;;;3.90;99.90;;;;;;5091832;28;20070;-74
2022/05/09 04:45:49;;;;;;;8.00;4.25;;;4.00;99.90;;;;;;5074269;28;20087;-73
2022/05/09 04:48:20;;;;;;;7.53;4.50;;;4.00;99.90;;;;;;5091521;28;20059;-74
2022/05/09 04:50:45;;;;;;;7.38;4.68;;;4.00;99.90;;;;;;5092177;28;20036;-74
2022/05/09 04:53:11;;;;;;;7.07;4.50;;;4.10;99.90;;;;;;5092055;28;20453;-73
2022/05/09 04:55:38;;;;;;;6.38;4.47;;;4.20;99.90;;;;;;5074367;28;20032;-74
2022/05/09 04:58:04;;;;;;;7.03;4.28;;;4.20;99.90;;;;;;5091789;28;20068;-75
2022/05/09 05:00:30;;;;;;;7.43;4.43;;;4.30;99.90;;;;;;5057656;28;20044;-75
2022/05/09 05:02:57;;;;;;;10.32;4.20;;;4.40;99.90;;;;;;5091540;28;20039;-75
2022/05/09 05:05:24;;;;;;;12.70;4.97;;;4.50;99.90;;;;;;5091815;28;20040;-75
2022/05/09 05:07:51;;;;;;;11.63;6.18;;;4.60;99.90;;;;;;5074228;28;20428;-75
2022/05/09 05:10:17;;;;;;;15.88;7.40;;;4.60;99.90;;;;;;5076662;28;20113;-74
2022/05/09 05:12:43;;;;;;;20.50;7.78;;;4.70;99.90;;;;;;5077754;28;20111;-73
2022/05/09 05:15:10;;;;;;;19.55;7.80;;;4.90;99.90;;;;;;5078051;28;20058;-73
2022/05/09 05:17:37;;;;;;;21.70;10.43;;;5.10;99.90;;;;;;5095320;28;20055;-74
2022/05/09 05:20:04;;;;;;;20.92;7.30;;;5.30;99.90;;;;;;5095396;28;20052;-74
2022/05/09 05:22:34;;;;;;;22.75;8.40;;;5.50;99.90;;;;;;5095548;28;20419;-74
2022/05/09 05:25:00;;;;;;;27.40;8.43;;;5.60;99.90;;;;;;5095351;28;20101;-75
2022/05/09 05:27:25;;;;;;;21.02;8.10;;;5.80;99.90;;;;;;5061122;28;20043;-75
2022/05/09 05:29:55;;;;;;;26.20;8.05;;;6.00;99.90;;;;;;5095215;28;20036;-75
2022/05/09 05:32:25;;;;;;;23.80;7.93;;;6.20;99.90;;;;;;5095199;28;20040;-74
2022/05/09 05:34:51;;;;;;;25.52;7.05;;;6.40;99.90;;;;;;5095404;28;20055;-74
2022/05/09 05:37:18;;;;;;;19.83;7.10;;;6.60;99.90;;;;;;5095274;28;20040;-75
2022/05/09 05:39:45;;;;;;;16.58;7.32;;;6.70;99.90;;;;;;5095215;28;20112;-75
2022/05/09 05:42:11;;;;;;;17.73;7.72;;;6.90;99.90;;;;;;5095237;28;20044;-74
2022/05/09 05:44:37;;;;;;;15.52;7.03;;;7.10;99.90;;;;;;5094937;28;20122;-75
2022/05/09 05:47:09;;;;;;;20.88;7.18;;;7.30;99.90;;;;;;5092003;28;20181;-74
2022/05/09 05:49:36;;;;;;;18.60;7.95;;;7.40;99.90;;;;;;5094974;28;20101;-74
2022/05/09 05:52:03;;;;;;;21.75;8.35;;;7.60;99.90;;;;;;5077474;28;20039;-75
2022/05/09 05:54:36;;;;;;;19.42;7.70;;;7.80;99.90;;;;;;5077351;28;20120;-74
2022/05/09 05:57:06;;;;;;;16.67;6.93;;;8.00;99.90;;;;;;5094758;28;20055;-74
2022/05/09 05:59:32;;;;;;;18.58;6.28;;;8.10;99.90;;;;;;5092740;28;20279;-75
2022/05/09 06:01:59;;;;;;;13.30;6.97;;;8.30;99.90;;;;;;5094688;28;20427;-75
2022/05/09 06:04:25;;;;;;;17.05;7.00;;;8.50;99.90;;;;;;5077229;28;20113;-76
2022/05/09 06:06:51;;;;;;;13.23;6.15;;;8.60;99.90;;;;;;5094653;28;20048;-76
2022/05/09 06:09:17;;;;;;;16.02;6.65;;;8.80;99.90;;;;;;5094498;28;20419;-74
2022/05/09 06:11:43;;;;;;;15.50;6.28;;;9.00;99.90;;;;;;5094442;28;20361;-75
2022/05/09 06:14:10;;;;;;;17.40;6.38;;;9.20;99.90;;;;;;5077119;28;20412;-74
2022/05/09 06:16:37;;;;;;;14.55;5.78;;;9.40;99.90;;;;;;5094566;28;20040;-75
2022/05/09 06:19:04;;;;;;;21.10;6.00;;;9.60;99.90;;;;;;5094307;28;20453;-76
2022/05/09 06:21:34;;;;;;;16.20;5.88;;;9.80;99.90;;;;;;5093634;28;20110;-75
2022/05/09 06:24:04;;;;;;;15.65;5.28;;;10.00;99.90;;;;;;5094129;28;20059;-76
2022/05/09 06:26:34;;;;;;;17.45;5.63;;;10.20;99.90;;;;;;5093992;28;20043;-75
2022/05/09 06:29:01;;;;;;;17.05;6.28;;;10.60;99.90;;;;;;5094340;28;20063;-75
2022/05/09 06:31:27;;;;;;;11.55;4.97;;;10.90;99.90;;;;;;5076882;28;20123;-74
2022/05/09 06:33:53;;;;;;;11.48;4.32;;;11.20;99.90;;;;;;5094430;28;20094;-75
2022/05/09 06:36:18;;;;;;;15.68;4.68;;;11.50;99.90;;;;;;5076622;28;20075;-75
2022/05/09 06:38:44;;;;;;;18.83;5.25;;;11.90;99.90;;;;;;5093792;28;20070;-75
2022/05/09 06:41:10;;;;;;;18.27;6.60;;;12.20;99.90;;;;;;5094314;28;20341;-74
2022/05/09 06:43:36;;;;;;;13.63;4.85;;;12.40;99.90;;;;;;5095484;28;20043;-75
2022/05/09 06:46:03;;;;;;;13.10;5.15;;;12.50;99.90;;;;;;5095121;28;20098;-75
2022/05/09 06:48:29;;;;;;;14.23;4.90;;;12.60;99.90;;;;;;5093844;28;20043;-75
2022/05/09 06:50:55;;;;;;;15.43;5.40;;;12.80;99.90;;;;;;5095580;28;20338;-82
2022/05/09 06:53:21;;;;;;;13.40;4.57;;;12.90;99.90;;;;;;5079080;28;20340;-75
2022/05/09 06:55:49;;;;;;;13.00;4.60;;;13.10;99.90;;;;;;5092665;28;20070;-75
2022/05/09 06:58:17;;;;;;;12.07;5.18;;;13.20;99.90;;;;;;5075985;28;20055;-75
2022/05/09 07:00:44;;;;;;;13.00;4.55;;;13.50;99.90;;;;;;5075862;28;20109;-76
2022/05/09 07:03:12;;;;;;;14.02;4.57;;;13.70;99.90;;;;;;5093355;28;20047;-75
2022/05/09 07:05:39;;;;;;;21.15;5.68;;;13.80;99.90;;;;;;5093291;28;20079;-75
2022/05/09 07:08:06;;;;;;;14.98;5.00;;;14.00;99.90;;;;;;5093149;28;20118;-75
2022/05/09 07:10:32;;;;;;;13.57;4.60;;;14.20;99.90;;;;;;5093335;28;20032;-77
2022/05/09 07:12:58;;;;;;;10.60;4.38;;;14.50;99.90;;;;;;5093421;28;20051;-77
2022/05/09 07:15:29;;;;;;;15.27;4.35;;;14.80;99.90;;;;;;5090003;28;20087;-76
2022/05/09 07:17:55;;;;;;;18.25;4.95;;;15.00;99.90;;;;;;5075818;28;20097;-75
2022/05/09 07:20:25;;;;;;;11.77;4.20;;;15.30;99.90;;;;;;5075253;28;20131;-76
2022/05/09 07:22:55;;;;;;;12.43;4.35;;;15.50;99.90;;;;;;5092986;28;20372;-76
2022/05/09 07:25:23;;;;;;;15.15;4.70;;;15.70;99.90;;;;;;5075297;28;20425;-76
2022/05/09 07:27:50;;;;;;;12.43;4.60;;;15.90;99.90;;;;;;5093227;28;20072;-77
2022/05/09 07:30:19;;;;;;;12.50;4.28;;;16.10;99.90;;;;;;5093181;28;20035;-76
2022/05/09 07:32:47;;;;;;;15.77;4.90;;;16.20;99.90;;;;;;5092138;28;20091;-76
2022/05/09 07:35:14;;;;;;;12.80;4.25;;;16.30;99.90;;;;;;5075204;28;20123;-75
2022/05/09 07:37:40;;;;;;;9.20;3.65;;;16.40;99.90;;;;;;5092984;28;20044;-75
2022/05/09 07:40:11;;;;;;;11.05;3.72;;;16.50;99.90;;;;;;5075129;28;20310;-74
2022/05/09 07:42:37;;;;;;;9.57;3.90;;;16.60;99.90;;;;;;5092985;28;20090;-74
2022/05/09 07:45:04;;;;;;;12.48;4.10;;;16.70;99.90;;;;;;5090040;28;20139;-75
2022/05/09 07:47:30;;;;;;;11.10;4.20;;;16.90;99.90;;;;;;5075196;28;20094;-74
2022/05/09 07:49:56;;;;;;;11.77;3.88;;;17.20;99.90;;;;;;5074951;28;20044;-75
2022/05/09 07:52:22;;;;;;;13.57;4.05;;;17.40;99.90;;;;;;5092944;28;20055;-75
2022/05/09 07:54:48;;;;;;;12.82;4.53;;;17.60;99.90;;;;;;5092975;28;20044;-74
2022/05/09 07:57:15;;;;;;;11.10;4.00;;;17.80;99.90;;;;;;5075277;28;20127;-76
2022/05/09 07:59:41;;;;;;;14.65;4.20;;;18.10;99.90;;;;;;5092917;28;20047;-75
2022/05/09 08:02:07;;;;;;;16.88;4.35;;;18.30;99.90;;;;;;5093027;28;20445;-75
2022/05/09 08:04:33;;;;;;;10.85;3.63;;;18.50;99.90;;;;;;5072005;28;20082;-75
2022/05/09 08:06:59;;;;;;;11.18;3.92;;;18.70;99.90;;;;;;5089655;28;20051;-77
2022/05/09 08:09:24;;;;;;;9.82;3.83;;;18.90;99.90;;;;;;5075091;28;20048;-76
2022/05/09 08:11:50;;;;;;;11.18;4.00;;;19.00;99.90;;;;;;5092876;28;20048;-75
2022/05/09 08:14:16;;;;;;;13.52;3.95;;;19.10;99.60;;;;;;5075036;28;20040;-76
2022/05/09 08:16:43;;;;;;;16.95;4.97;;;19.30;99.50;;;;;;5075101;28;20055;-75
2022/05/09 08:19:11;;;;;;;13.05;4.47;;;19.50;99.70;;;;;;5092728;28;20217;-75
2022/05/09 08:21:38;;;;;;;10.05;4.10;;;19.80;99.70;;;;;;5092667;28;20052;-75
2022/05/09 08:24:05;;;;;;;10.10;3.25;;;20.00;98.40;;;;;;5092797;28;20054;-75
2022/05/09 08:26:32;;;;;;;10.80;3.95;;;20.10;96.50;;;;;;5092509;28;20040;-76
2022/05/09 08:28:58;;;;;;;6.82;3.08;;;20.40;96.20;;;;;;5075103;28;20326;-76
2022/05/09 08:31:24;;;;;;;12.15;4.00;;;20.70;94.30;;;;;;5092568;28;20352;-76
2022/05/09 08:33:52;;;;;;;13.90;3.67;;;20.90;92.90;;;;;;5089203;28;20494;-75
2022/05/09 08:39:05;;;;;;;13.27;3.58;;;21.30;90.30;;;;;;5092535;28;20047;-76
2022/05/09 08:41:55;;;;;;;11.52;3.30;;;21.60;90.10;;;;;;5074799;28;20075;-76
2022/05/09 08:44:23;;;;;;;10.80;3.40;;;21.90;88.50;;;;;;5095174;28;20062;-76
2022/05/09 08:47:19;;;;;;;8.68;3.40;;;22.10;88.00;;;;;;5078746;28;20056;-76
2022/05/09 08:50:01;;;;;;;8.27;3.55;;;22.20;86.40;;;;;;5096616;28;20044;-76
2022/05/09 08:52:49;;;;;;;9.27;3.20;;;22.30;84.00;;;;;;5078814;28;20149;-76
2022/05/09 08:55:37;;;;;;;9.95;3.78;;;22.60;82.20;;;;;;5096422;28;20047;-76
2022/05/09 08:58:24;;;;;;;11.98;3.30;;;22.90;78.10;;;;;;5078746;28;20078;-75
2022/05/09 09:00:53;;;;;;;12.55;3.22;;;23.00;73.40;;;;;;5096250;28;20586;-77
2022/05/09 09:03:29;;;;;;;8.93;3.10;;;23.00;73.30;;;;;;5078656;28;20071;-75
2022/05/09 09:06:02;;;;;;;13.05;3.60;;;23.10;74.20;;;;;;5078121;28;20126;-75
2022/05/09 09:09:02;;;;;;;8.43;2.67;;;23.20;73.90;;;;;;5078231;28;20127;-75
2022/05/09 09:11:44;;;;;;;10.95;2.65;;;23.30;64.40;;;;;;5097515;28;20109;-75
2022/05/09 09:14:41;;;;;;;7.90;2.30;;;23.40;65.60;;;;;;5098559;28;20036;-75
2022/05/09 09:17:56;;;;;;;10.57;2.88;;;23.50;62.50;;;;;;5096580;28;20048;-75
2022/05/09 09:20:32;;;;;;;6.38;2.42;;;23.70;60.30;;;;;;4993774;28;20270;-75
2022/05/09 09:23:39;;;;;;;9.60;2.60;;;23.70;57.30;;;;;;5072657;28;20060;-75
2022/05/09 09:26:37;;;;;;;25.20;3.55;;;23.40;58.80;;;;;;5036838;28;20441;-76
2022/05/09 09:29:25;;;;;;;8.77;2.78;;;23.60;58.90;;;;;;5075673;28;20044;-76
2022/05/09 09:32:01;;;;;;;6.78;2.67;;;23.80;58.60;;;;;;5057970;28;20433;-75
2022/05/09 09:35:01;;;;;;;9.52;2.55;;;23.90;56.80;;;;;;5072244;28;20062;-76
2022/05/09 09:37:39;;;;;;;10.88;3.00;;;23.90;56.50;;;;;;5057907;28;20454;-77
2022/05/09 09:40:06;;;;;;;7.70;2.30;;;24.00;56.90;;;;;;5075454;28;20041;-75
2022/05/09 09:42:33;;;;;;;8.45;2.67;;;24.20;54.20;;;;;;5075415;28;20033;-76
2022/05/09 09:45:00;;;;;;;10.02;2.80;;;24.10;55.90;;;;;;5075003;28;20037;-75
2022/05/09 09:47:28;;;;;;;8.35;3.20;;;24.10;54.30;;;;;;5075089;28;20059;-75
2022/05/09 09:50:21;;;;;;;7.30;2.30;;;24.30;52.80;;;;;;5075351;28;20044;-75
2022/05/09 09:52:53;;;;;;;8.55;2.67;;;24.40;53.00;;;;;;5075041;28;20084;-76
2022/05/09 09:55:36;;;;;;;7.75;2.20;;;24.60;52.30;;;;;;5074120;28;20047;-77
2022/05/09 09:58:27;;;;;;;5.38;2.20;;;24.70;49.50;;;;;;5075019;28;20051;-75
2022/05/09 10:01:04;;;;;;;7.18;2.17;;;24.30;49.80;;;;;;5074642;28;20094;-77
2022/05/09 10:03:33;;;;;;;11.07;3.60;;;24.00;47.50;;;;;;5074543;28;20115;-77
2022/05/09 10:06:01;;;;;;;6.50;2.60;;;23.90;49.40;;;;;;5057105;28;20250;-77
2022/05/09 10:08:31;;;;;;;8.02;2.40;;;24.10;50.60;;;;;;5074859;28;20047;-76
2022/05/09 10:11:19;;;;;;;10.35;2.80;;;24.30;48.40;;;;;;5074490;28;20047;-75
2022/05/09 10:13:51;;;;;;;7.43;1.90;;;24.50;47.70;;;;;;5074695;28;20131;-77
2022/05/09 10:16:33;;;;;;;9.95;2.80;;;24.50;47.00;;;;;;5074268;28;20076;-75
2022/05/09 10:19:02;;;;;;;13.25;2.85;;;24.30;46.50;;;;;;5074669;28;20051;-76
2022/05/09 10:27:22;;;;;;;8.75;2.70;;;24.70;47.30;;;;;;5094652;28;20051;-75
2022/05/09 10:30:08;;;;;;;6.47;2.67;;;24.50;46.80;;;;;;5094806;28;20070;-75
2022/05/09 10:32:47;;;;;;;5.82;2.30;;;24.40;48.90;;;;;;5094640;28;20353;-75
2022/05/09 10:35:37;;;;;;;7.78;2.88;;;24.40;49.60;;;;;;5094548;28;20360;-76
2022/05/09 10:38:23;;;;;;;6.10;1.83;;;24.40;49.60;;;;;;5094150;28;20051;-74
2022/05/09 10:40:59;;;;;;;8.48;2.33;;;24.50;50.60;;;;;;5094469;28;20036;-76
2022/05/09 10:43:45;;;;;;;5.70;1.95;;;24.40;47.60;;;;;;5093519;28;20048;-76
2022/05/09 10:46:12;;;;;;;6.88;2.15;;;24.20;47.10;;;;;;5093437;28;20052;-76
2022/05/09 10:48:49;;;;;;;7.97;2.58;;;24.10;47.50;;;;;;5094442;28;20181;-76
2022/05/09 10:51:19;;;;;;;8.45;3.05;;;24.10;46.00;;;;;;5094208;28;20047;-76
2022/05/09 10:54:04;;;;;;;7.53;2.50;;;24.10;47.40;;;;;;5094264;28;20186;-77
2022/05/09 10:56:41;;;;;;;9.45;3.05;;;24.30;48.00;;;;;;5094097;28;20052;-76
2022/05/09 10:59:22;;;;;;;6.78;2.60;;;24.50;49.20;;;;;;5094147;28;20055;-76
2022/05/09 11:02:12;;;;;;;8.35;2.95;;;24.60;47.10;;;;;;5093880;28;20040;-76
2022/05/09 11:04:38;;;;;;;12.40;3.15;;;24.80;48.40;;;;;;5094199;28;20040;-78
2022/05/09 11:07:41;;;;;;;7.82;2.65;;;25.00;47.90;;;;;;5093536;28;20055;-77
2022/05/09 11:10:43;;;;;;;8.77;2.60;;;25.20;45.90;;;;;;5093843;28;20044;-75
2022/05/09 11:13:22;;;;;;;8.35;2.33;;;25.40;45.60;;;;;;5093871;28;20040;-75
2022/05/09 11:15:58;;;;;;;9.90;2.53;;;25.60;46.20;;;;;;5075932;28;20036;-77
2022/05/09 11:19:01;;;;;;;7.75;2.33;;;25.80;45.60;;;;;;5093581;28;20166;-76
2022/05/09 11:21:33;;;;;;;7.97;2.25;;;25.80;46.70;;;;;;5075264;28;20074;-76
2022/05/09 11:24:06;;;;;;;4.80;1.83;;;25.50;42.70;;;;;;5093714;28;20123;-75
2022/05/09 11:26:32;;;;;;;8.23;3.30;;;25.20;44.10;;;;;;5075567;28;20044;-75
2022/05/09 11:29:16;;;;;;;5.18;1.83;;;24.90;46.70;;;;;;5093597;28;20101;-76
2022/05/09 11:32:19;;;;;;;8.65;2.67;;;24.80;47.30;;;;;;5093409;28;20071;-76
2022/05/09 11:35:07;;;;;;;10.68;2.47;;;24.90;47.10;;;;;;5093595;28;20110;-75
2022/05/09 11:37:57;;;;;;;10.52;2.65;;;24.90;45.60;;;;;;5093222;28;20044;-75
2022/05/09 11:40:32;;;;;;;10.48;2.72;;;25.20;47.00;;;;;;5092943;28;20043;-76
2022/05/09 11:43:29;;;;;;;6.10;2.17;;;25.40;44.60;;;;;;5093388;28;20051;-76
2022/05/09 11:46:13;;;;;;;6.95;2.10;;;25.50;43.80;;;;;;5093378;28;20048;-75
2022/05/09 11:48:48;;;;;;;6.97;2.03;;;25.50;43.50;;;;;;5093226;28;20147;-76
2022/05/09 11:51:34;;;;;;;6.55;1.90;;;25.60;44.20;;;;;;5093319;28;20052;-76
2022/05/09 11:54:40;;;;;;;8.18;2.25;;;25.60;43.90;;;;;;5093148;28;20515;-76
2022/05/09 11:57:11;;;;;;;5.97;1.80;;;25.40;44.90;;;;;;4974928;28;20133;-76
2022/05/09 11:59:47;;;;;;;7.72;1.98;;;25.20;45.60;;;;;;4991030;28;20369;-75
2022/05/09 12:02:13;;;;;;;7.97;2.30;;;25.20;44.50;;;;;;5037127;28;20062;-76
2022/05/09 12:04:45;;;;;;;8.00;2.10;;;25.00;44.40;;;;;;5072695;28;20127;-76
2022/05/09 12:07:26;;;;;;;9.68;2.60;;;24.90;43.40;;;;;;5072530;28;20131;-75
2022/05/09 12:09:58;;;;;;;6.07;1.98;;;25.00;45.20;;;;;;5072724;28;20080;-76
2022/05/09 12:12:43;;;;;;;4.60;2.10;;;25.10;45.30;;;;;;5054971;28;20052;-76
2022/05/09 12:15:15;;;;;;;8.40;2.13;;;24.90;43.40;;;;;;5072095;28;20545;-74
2022/05/09 12:17:48;;;;;;;8.27;2.72;;;24.60;44.40;;;;;;5054431;28;20040;-74
2022/05/09 12:20:29;;;;;;;8.43;2.28;;;24.30;45.10;;;;;;5072347;28;20061;-76
2022/05/09 12:22:59;;;;;;;7.40;2.20;;;24.20;46.90;;;;;;5072182;28;20059;-75
2022/05/09 12:25:34;;;;;;;8.57;2.15;;;24.10;46.10;;;;;;5071975;28;20047;-76
2022/05/09 12:28:15;;;;;;;5.45;2.40;;;24.00;45.10;;;;;;5072405;28;20044;-76
2022/05/09 12:30:53;;;;;;;6.60;1.90;;;23.90;46.10;;;;;;5072548;28;20060;-76
2022/05/09 12:33:19;;;;;;;6.68;2.28;;;24.00;45.60;;;;;;5055921;28;20044;-75
2022/05/09 12:35:45;;;;;;;6.15;1.85;;;24.00;44.90;;;;;;5074505;28;20029;-76
2022/05/09 12:38:12;;;;;;;9.07;2.75;;;23.90;44.40;;;;;;5072733;28;20110;-74
2022/05/09 12:40:39;;;;;;;6.90;2.00;;;23.80;43.40;;;;;;5090320;28;20380;-76
2022/05/09 12:43:07;;;;;;;5.65;1.90;;;23.80;47.70;;;;;;5092341;28;20104;-75
2022/05/09 12:45:34;;;;;;;7.25;2.28;;;23.70;48.10;;;;;;5092174;28;20449;-77
2022/05/09 12:48:01;;;;;;;7.40;2.08;;;23.60;46.80;;;;;;5092329;28;20047;-76
2022/05/09 12:50:30;;;;;;;9.35;2.13;;;23.30;46.90;;;;;;5092285;28;20058;-75
2022/05/09 12:53:07;;;;;;;7.57;2.25;;;23.20;46.10;;;;;;5092191;28;20036;-75
2022/05/09 12:55:56;;;;;;;8.40;2.55;;;23.10;46.00;;;;;;5074337;28;20051;-74
2022/05/09 12:58:34;;;;;;;4.67;1.77;;;23.10;48.00;;;;;;5091983;28;20095;-75
2022/05/09 13:01:10;;;;;;;8.18;2.60;;;23.10;46.00;;;;;;5093035;28;20105;-75
2022/05/09 13:03:44;;;;;;;5.32;2.25;;;23.20;46.20;;;;;;5092178;28;20036;-77
2022/05/09 13:06:13;;;;;;;9.20;2.90;;;23.20;48.80;;;;;;5074182;28;20512;-75
2022/05/09 13:08:39;;;;;;;;;;;23.40;44.90;;;;;;5093798;28;20048;-77
2022/05/09 13:11:14;;;;;;;7.50;2.38;;;23.40;45.90;;;;;;5091899;28;20351;-76
2022/05/09 13:13:45;;;;;;;7.35;2.00;;;23.40;44.20;;;;;;5074444;28;20083;-75
2022/05/09 13:16:19;;;;;;;6.80;1.88;;;23.40;48.40;;;;;;5092077;28;20048;-75
2022/05/09 13:18:45;;;;;;;7.82;1.63;;;23.30;47.80;;;;;;5092105;28;20039;-75
2022/05/09 13:21:11;;;;;;;8.55;2.10;;;23.30;49.10;;;;;;5075220;28;20358;-77